createdAt,value
2022-08-01T00:01:17.511Z,100020.06
2022-08-01T00:03:47.066Z,100025.59
2022-08-01T00:06:15.337Z,100028.47
2022-08-01T00:08:43.486Z,100021.34
2022-08-01T00:11:11.662Z,100021.22
2022-08-01T00:13:39.725Z,100034.47
2022-08-01T00:16:09.861Z,100023.47
2022-08-01T00:18:38.088Z,100021.97
2022-08-01T00:21:07.745Z,100024.19
2022-08-01T00:23:36.080Z,100013.91
2022-08-01T00:26:04.826Z,100013.72
2022-08-01T00:28:32.957Z,100007.63
2022-08-01T00:31:01.208Z,100009.44
2022-08-01T00:33:29.315Z,100006.97
2022-08-01T00:35:58.038Z,100001.81
2022-08-01T00:38:27.598Z,100006.22
2022-08-01T00:40:55.815Z,100006.66
2022-08-01T00:43:24.005Z,100008.84
2022-08-01T00:45:52.143Z,100003.63
2022-08-01T00:48:20.241Z,100006.84
2022-08-01T00:50:48.630Z,100006.19
2022-08-01T00:53:18.955Z,100002.31
2022-08-01T00:55:49.429Z,100006.69
2022-08-01T00:58:17.859Z,99999.91
2022-08-01T01:00:53.038Z,99997.81
2022-08-01T01:03:43.548Z,99998.75
2022-08-01T01:06:28.942Z,100010.56
2022-08-01T01:09:26.398Z,100001.53
2022-08-01T01:12:04.200Z,99998.94
2022-08-01T01:14:38.412Z,100002.56
2022-08-01T01:17:09.707Z,100002.97
2022-08-01T01:19:44.233Z,100004.00
2022-08-01T01:22:28.071Z,100014.66
2022-08-01T01:25:34.121Z,100019.50
2022-08-01T01:28:10.873Z,100017.06
2022-08-01T01:30:43.492Z,100017.31
2022-08-01T01:33:13.531Z,100008.56
2022-08-01T01:35:47.086Z,99998.56
2022-08-01T01:38:20.740Z,100004.19
2022-08-01T01:40:51.195Z,100001.72
2022-08-01T01:43:21.086Z,100000.75
2022-08-01T01:45:59.276Z,99993.09
2022-08-01T01:48:28.768Z,99990.94
2022-08-01T01:50:58.106Z,99994.06
2022-08-01T01:53:28.212Z,99984.47
2022-08-01T01:55:59.414Z,99991.25
2022-08-01T01:58:29.846Z,99990.41
2022-08-01T02:01:03.584Z,99983.13
2022-08-01T02:03:32.646Z,99985.06
2022-08-01T02:06:03.011Z,99979.69
2022-08-01T02:08:33.151Z,99987.75
2022-08-01T02:11:21.834Z,99980.03
2022-08-01T02:13:57.817Z,99982.00
2022-08-01T02:16:30.689Z,99978.91
2022-08-01T02:18:59.070Z,99980.31
2022-08-01T02:21:32.112Z,99987.91
2022-08-01T02:24:10.377Z,99975.31
2022-08-01T02:26:43.466Z,99977.88
2022-08-01T02:29:15.639Z,99968.16
2022-08-01T02:31:49.606Z,99974.47
2022-08-01T02:34:19.518Z,99977.34
2022-08-01T02:36:49.865Z,99969.84
2022-08-01T02:39:21.550Z,99980.38
2022-08-01T02:41:57.668Z,99971.47
2022-08-01T02:44:29.644Z,99968.16
2022-08-01T02:47:03.482Z,99981.16
2022-08-01T02:49:33.859Z,99973.22
2022-08-01T02:52:06.413Z,99972.38
2022-08-01T02:54:36.110Z,99968.59
2022-08-01T02:57:06.715Z,99968.47
2022-08-01T02:59:38.352Z,99957.91
2022-08-01T03:02:12.096Z,99964.09
2022-08-01T03:04:42.680Z,99964.97
2022-08-01T03:07:12.623Z,99965.34
2022-08-01T03:09:42.466Z,99964.56
2022-08-01T03:12:20.003Z,99962.47
2022-08-01T03:14:51.605Z,99962.00
2022-08-01T03:17:23.274Z,99960.31
2022-08-01T03:19:53.364Z,99962.47
2022-08-01T03:22:24.866Z,99959.56
2022-08-01T03:24:55.357Z,99957.56
2022-08-01T03:27:25.390Z,99957.06
2022-08-01T03:29:54.374Z,99952.13
2022-08-01T03:32:26.882Z,99954.13
2022-08-01T03:34:55.258Z,99953.16
2022-08-01T03:37:26.694Z,99949.75
2022-08-01T03:40:00.342Z,99945.66
2022-08-01T03:42:35.134Z,99951.94
2022-08-01T03:45:13.209Z,99959.84
2022-08-01T03:47:46.258Z,99957.38
2022-08-01T03:50:17.922Z,99961.75
2022-08-01T03:52:48.738Z,99959.28
2022-08-01T03:55:19.154Z,99963.91
2022-08-01T03:57:48.582Z,99962.03
2022-08-01T04:00:19.458Z,99966.88
2022-08-01T04:02:50.767Z,99967.63
2022-08-01T04:05:19.295Z,99976.94
2022-08-01T04:07:49.065Z,99982.66
2022-08-01T04:10:17.260Z,99984.53
2022-08-01T04:12:45.416Z,99986.53
2022-08-01T04:15:13.574Z,99985.53
2022-08-01T04:17:41.747Z,99993.00
2022-08-01T04:20:13.216Z,99987.06
2022-08-01T04:22:41.763Z,99985.41
2022-08-01T04:25:14.681Z,99985.63
2022-08-01T04:27:49.953Z,99986.06
2022-08-01T04:30:25.594Z,99984.84
2022-08-01T04:32:56.623Z,99986.97
2022-08-01T04:36:02.103Z,99986.78
2022-08-01T04:38:22.039Z,99982.81
2022-08-01T04:40:54.526Z,99977.16
2022-08-01T04:43:24.017Z,99974.81
2022-08-01T04:45:53.642Z,99978.78
2022-08-01T04:48:25.889Z,99973.13
2022-08-01T04:50:56.209Z,99983.59
2022-08-01T04:53:24.367Z,99978.13
2022-08-01T04:55:52.517Z,99982.44
2022-08-01T04:58:20.773Z,99983.91
2022-08-01T05:00:49.174Z,99982.75
2022-08-01T05:03:17.588Z,99986.59
2022-08-01T05:05:45.914Z,99989.13
2022-08-01T05:08:18.690Z,99978.88
2022-08-01T05:10:46.770Z,99984.84
2022-08-01T05:13:14.990Z,99982.59
2022-08-01T05:15:44.422Z,99973.19
2022-08-01T05:18:12.756Z,99977.88
2022-08-01T05:20:43.077Z,99994.09
2022-08-01T05:23:19.278Z,99985.53
2022-08-01T05:25:59.951Z,99987.41
2022-08-01T05:28:28.057Z,99984.81
2022-08-01T05:30:57.584Z,99983.53
2022-08-01T05:33:25.753Z,99986.16
2022-08-01T05:35:54.048Z,99985.88
2022-08-01T05:38:22.160Z,99975.19
2022-08-01T05:40:50.414Z,99980.59
2022-08-01T05:43:20.176Z,99980.88
2022-08-01T05:45:48.921Z,99990.13
2022-08-01T05:48:17.327Z,99987.09
2022-08-01T05:50:45.706Z,99986.72
2022-08-01T05:53:13.834Z,99988.91
2022-08-01T05:55:44.998Z,99984.91
2022-08-01T05:58:13.180Z,99984.28
2022-08-01T06:00:42.767Z,99976.41
2022-08-01T06:03:12.351Z,99975.22
2022-08-01T06:05:40.515Z,99984.22
2022-08-01T06:08:08.694Z,99982.13
2022-08-01T06:10:36.797Z,99988.97
2022-08-01T06:13:05.038Z,99986.38
2022-08-01T06:15:33.496Z,99984.66
2022-08-01T06:18:03.099Z,99987.19
2022-08-01T06:20:31.261Z,99994.25
2022-08-01T06:22:59.951Z,99986.41
2022-08-01T06:25:30.777Z,99991.88
2022-08-01T06:27:59.303Z,99987.19
2022-08-01T06:30:27.600Z,99982.97
2022-08-01T06:32:56.896Z,99985.88
2022-08-01T06:35:26.695Z,99992.78
2022-08-01T06:37:54.962Z,99996.53
2022-08-01T06:40:23.109Z,99995.75
2022-08-01T06:42:51.418Z,100003.44
2022-08-01T06:45:23.311Z,99998.38
2022-08-01T06:47:51.532Z,100007.34
2022-08-01T06:50:19.956Z,100005.09
2022-08-01T06:52:49.519Z,100001.66
2022-08-01T06:55:17.642Z,100001.25
2022-08-01T06:57:49.737Z,100000.00
2022-08-01T07:00:19.897Z,100000.16
2022-08-01T07:02:48.064Z,99990.03
2022-08-01T07:05:16.295Z,99997.44
2022-08-01T07:07:44.468Z,99996.03
2022-08-01T07:10:14.053Z,99991.81
2022-08-01T07:12:42.202Z,99977.66
2022-08-01T07:15:12.363Z,99987.03
2022-08-01T07:17:42.413Z,99982.09
2022-08-01T07:20:13.931Z,99980.50
2022-08-01T07:22:47.440Z,99984.88
2022-08-01T07:25:21.035Z,99988.56
2022-08-01T07:27:49.234Z,99986.69
2022-08-01T07:30:17.441Z,99990.94
2022-08-01T07:32:45.591Z,99987.66
2022-08-01T07:35:13.671Z,99993.56
2022-08-01T07:37:46.324Z,99986.59
2022-08-01T07:40:22.858Z,99988.59
2022-08-01T07:42:52.498Z,99993.91
2022-08-01T07:45:21.852Z,99987.13
2022-08-01T07:47:50.561Z,99987.84
2022-08-01T07:50:18.812Z,99992.41
2022-08-01T07:52:47.021Z,99999.13
2022-08-01T07:55:16.224Z,99988.84
2022-08-01T07:57:46.577Z,99993.78
2022-08-01T08:00:16.164Z,99995.09
2022-08-01T08:02:45.153Z,99989.41
2022-08-01T08:05:13.707Z,99989.63
2022-08-01T08:07:41.968Z,99987.56
2022-08-01T08:10:10.958Z,99986.66
2022-08-01T08:12:39.147Z,99983.59
2022-08-01T08:15:09.818Z,100001.28
2022-08-01T08:17:37.953Z,100004.81
2022-08-01T08:20:09.128Z,99994.16
2022-08-01T08:22:38.560Z,99998.97
2022-08-01T08:25:09.303Z,99997.72
2022-08-01T08:27:38.119Z,99999.44
2022-08-01T08:30:09.530Z,100005.84
2022-08-01T08:32:38.152Z,100007.72
2022-08-01T08:35:07.308Z,100016.63
2022-08-01T08:37:39.075Z,100014.28
2022-08-01T08:40:16.635Z,100020.59
2022-08-01T08:42:47.407Z,100023.91
2022-08-01T08:45:17.000Z,100026.09
2022-08-01T08:47:48.046Z,100032.13
2022-08-01T08:50:16.932Z,100032.97
2022-08-01T08:52:49.080Z,100031.56
2022-08-01T08:55:18.642Z,100046.22
2022-08-01T08:57:48.935Z,100044.53
2022-08-01T09:00:18.640Z,100047.63
2022-08-01T09:02:50.132Z,100038.06
2022-08-01T09:05:20.199Z,100036.53
2022-08-01T09:07:48.484Z,100037.75
2022-08-01T09:10:16.599Z,100042.00
2022-08-01T09:13:06.178Z,100032.75
2022-08-01T09:15:44.301Z,100034.47
2022-08-01T09:18:28.996Z,100036.00
2022-08-01T09:21:20.334Z,100039.03
2022-08-01T09:23:53.967Z,100026.66
2022-08-01T09:26:30.159Z,100031.22
2022-08-01T09:29:00.410Z,100028.09
2022-08-01T09:31:38.488Z,100033.59
2022-08-01T09:34:08.550Z,100036.22
2022-08-01T09:36:54.236Z,100031.91
2022-08-01T09:39:24.336Z,100032.66
2022-08-01T09:41:53.359Z,100031.09
2022-08-01T09:44:42.407Z,100029.22
2022-08-01T09:47:15.626Z,100026.94
2022-08-01T09:49:50.113Z,100031.41
2022-08-01T09:52:29.308Z,100027.44
2022-08-01T09:54:59.751Z,100030.69
2022-08-01T09:57:29.368Z,100039.38
2022-08-01T10:00:01.987Z,100039.31
2022-08-01T10:02:42.298Z,100030.78
2022-08-01T10:05:20.979Z,100034.66
2022-08-01T10:08:00.784Z,100032.94
2022-08-01T10:10:31.589Z,100036.13
2022-08-01T10:13:01.540Z,100032.22
2022-08-01T10:15:37.416Z,100034.97
2022-08-01T10:18:16.346Z,100033.44
2022-08-01T10:20:50.221Z,100041.53
2022-08-01T10:23:21.876Z,100038.94
2022-08-01T10:25:50.927Z,100036.78
2022-08-01T10:28:27.154Z,100038.47
2022-08-01T10:30:56.870Z,100033.91
2022-08-01T10:33:52.042Z,100038.00
2022-08-01T10:36:15.778Z,100033.91
2022-08-01T10:38:45.350Z,100027.00
2022-08-01T10:41:16.317Z,100031.09
2022-08-01T10:43:47.074Z,100019.31
2022-08-01T10:46:15.551Z,100019.84
2022-08-01T10:48:52.102Z,100013.88
2022-08-01T10:51:22.495Z,100013.06
2022-08-01T10:54:11.986Z,100013.56
2022-08-01T10:56:46.141Z,100016.09
2022-08-01T10:59:49.239Z,100011.19
2022-08-01T11:02:10.208Z,100011.50
2022-08-01T11:04:53.342Z,100006.06
2022-08-01T11:07:26.111Z,100011.97
2022-08-01T11:10:14.526Z,99996.75
2022-08-01T11:12:44.448Z,100002.50
2022-08-01T11:15:29.127Z,99999.47
2022-08-01T11:18:01.307Z,100008.44
2022-08-01T11:20:33.839Z,99994.69
2022-08-01T11:23:36.215Z,99996.03
2022-08-01T11:26:17.536Z,99993.63
2022-08-01T11:29:10.864Z,99983.31
2022-08-01T11:31:37.500Z,99994.66
2022-08-01T11:34:06.700Z,99983.91
2022-08-01T11:36:58.518Z,99983.59
2022-08-01T11:39:24.652Z,99991.97
2022-08-01T11:41:53.760Z,99987.41
2022-08-01T11:44:30.541Z,99991.81
2022-08-01T11:47:02.411Z,99990.28
2022-08-01T11:49:49.046Z,99992.31
2022-08-01T11:52:21.148Z,99992.84
2022-08-01T11:54:51.619Z,99999.97
2022-08-01T11:57:23.276Z,99986.22
2022-08-01T12:00:03.517Z,99997.38
2022-08-01T12:02:42.018Z,99985.38
2022-08-01T12:05:13.991Z,99980.94
2022-08-01T12:07:45.100Z,99985.84
2022-08-01T12:10:15.034Z,99982.88
2022-08-01T12:12:45.979Z,99986.91
2022-08-01T12:15:14.951Z,99985.94
2022-08-01T12:17:57.478Z,99993.38
2022-08-01T12:20:31.499Z,99993.44
2022-08-01T12:23:02.924Z,99989.16
2022-08-01T12:25:31.343Z,99994.75
2022-08-01T12:28:02.463Z,99987.88
2022-08-01T12:30:32.741Z,99994.75
2022-08-01T12:33:00.945Z,99986.41
2022-08-01T12:35:30.457Z,100000.69
2022-08-01T12:38:03.457Z,99978.31
2022-08-01T12:40:34.739Z,99977.56
2022-08-01T12:43:04.980Z,99977.03
2022-08-01T12:45:36.323Z,99979.44
2022-08-01T12:48:09.546Z,99985.66
2022-08-01T12:50:40.028Z,99976.63
2022-08-01T12:53:10.698Z,99977.47
2022-08-01T12:55:58.220Z,99974.94
2022-08-01T12:58:34.245Z,99976.28
2022-08-01T13:01:07.339Z,99973.94
2022-08-01T13:03:36.027Z,99978.91
2022-08-01T13:06:13.547Z,99978.91
2022-08-01T13:08:46.652Z,99980.78
2022-08-01T13:11:18.207Z,99977.47
2022-08-01T13:13:49.202Z,99975.88
2022-08-01T13:16:30.314Z,99961.97
2022-08-01T13:19:07.531Z,99968.75
2022-08-01T13:21:53.637Z,99962.41
2022-08-01T13:24:29.267Z,99965.91
2022-08-01T13:27:00.696Z,99952.91
2022-08-01T13:29:34.027Z,99952.19
2022-08-01T13:32:02.518Z,99963.47
2022-08-01T13:34:35.770Z,99963.03
2022-08-01T13:37:04.484Z,99949.75
2022-08-01T13:39:45.108Z,99949.94
2022-08-01T13:42:18.995Z,99947.75
2022-08-01T13:44:47.790Z,99956.09
2022-08-01T13:47:16.941Z,99939.03
2022-08-01T13:49:45.714Z,99957.22
2022-08-01T13:52:13.964Z,99950.34
2022-08-01T13:54:43.598Z,99950.09
2022-08-01T13:57:11.784Z,99945.13
2022-08-01T13:59:40.060Z,99951.28
2022-08-01T14:02:08.677Z,99948.81
2022-08-01T14:04:37.006Z,99940.56
2022-08-01T14:07:10.593Z,99945.72
2022-08-01T14:09:44.981Z,99949.16
2022-08-01T14:12:29.669Z,99950.16
2022-08-01T14:14:58.070Z,99945.28
2022-08-01T14:17:26.195Z,99955.91
2022-08-01T14:19:57.560Z,99951.81
2022-08-01T14:22:27.900Z,99949.16
2022-08-01T14:25:00.823Z,99967.59
2022-08-01T14:27:37.061Z,99965.59
2022-08-01T14:30:09.548Z,99951.34
2022-08-01T14:32:38.506Z,99943.00
2022-08-01T14:35:08.468Z,99961.56
2022-08-01T14:37:38.768Z,99964.31
2022-08-01T14:40:11.712Z,99958.25
2022-08-01T14:42:41.425Z,99959.47
2022-08-01T14:45:10.862Z,99956.63
2022-08-01T14:47:39.407Z,99953.00
2022-08-01T14:50:09.445Z,99954.47
2022-08-01T14:52:38.520Z,99961.59
2022-08-01T14:55:11.072Z,99970.75
2022-08-01T14:57:41.910Z,99962.84
2022-08-01T15:00:12.710Z,99961.38
2022-08-01T15:02:41.184Z,99963.88
2022-08-01T15:05:09.690Z,99946.22
2022-08-01T15:07:51.615Z,99952.69
2022-08-01T15:10:22.608Z,99950.81
2022-08-01T15:12:52.200Z,99956.47
2022-08-01T15:15:21.034Z,99956.22
2022-08-01T15:17:49.383Z,99950.53
2022-08-01T15:20:19.397Z,99949.78
2022-08-01T15:22:50.546Z,99953.84
2022-08-01T15:25:18.752Z,99950.56
2022-08-01T15:27:46.950Z,99953.13
2022-08-01T15:30:16.694Z,99964.19
2022-08-01T15:32:51.615Z,99957.16
2022-08-01T15:35:19.966Z,99962.09
2022-08-01T15:37:48.376Z,99955.28
2022-08-01T15:40:19.702Z,99960.16
2022-08-01T15:42:48.189Z,99957.09
2022-08-01T15:45:45.762Z,99963.53
2022-08-01T15:48:08.663Z,99950.78
2022-08-01T15:50:38.677Z,99961.59
2022-08-01T15:53:06.999Z,99957.69
2022-08-01T15:55:38.235Z,99962.97
2022-08-01T15:58:11.564Z,99952.53
2022-08-01T16:00:41.603Z,99950.06
2022-08-01T16:03:10.553Z,99963.06
2022-08-01T16:05:43.428Z,99961.16
2022-08-01T16:08:12.921Z,99951.38
2022-08-01T16:10:41.377Z,99956.63
2022-08-01T16:13:09.948Z,99963.78
2022-08-01T16:15:39.362Z,99959.53
2022-08-01T16:18:10.491Z,99961.22
2022-08-01T16:20:45.552Z,99964.81
2022-08-01T16:23:15.182Z,99957.31
2022-08-01T16:25:44.573Z,99957.31
2022-08-01T16:28:14.346Z,99958.69
2022-08-01T16:30:51.025Z,99957.00
2022-08-01T16:33:41.327Z,99952.69
2022-08-01T16:36:23.321Z,99956.94
2022-08-01T16:38:56.526Z,99958.69
2022-08-01T16:41:27.926Z,99960.13
2022-08-01T16:43:56.475Z,99955.31
2022-08-01T16:46:28.668Z,99951.66
2022-08-01T16:49:00.478Z,99953.59
2022-08-01T16:51:29.017Z,99959.59
2022-08-01T16:54:01.184Z,99958.22
2022-08-01T16:56:32.571Z,99955.81
2022-08-01T16:59:00.803Z,99959.88
2022-08-01T17:01:58.899Z,99959.25
2022-08-01T17:04:19.076Z,99966.78
2022-08-01T17:06:47.285Z,99962.03
2022-08-01T17:09:15.483Z,99964.56
2022-08-01T17:11:44.248Z,99968.50
2022-08-01T17:14:15.440Z,99966.78
2022-08-01T17:16:43.618Z,99965.44
2022-08-01T17:19:14.871Z,99966.78
2022-08-01T17:21:45.051Z,99968.03
2022-08-01T17:24:15.773Z,99967.50
2022-08-01T17:26:44.873Z,99969.91
2022-08-01T17:29:13.189Z,99977.22
2022-08-01T17:31:41.577Z,99980.97
2022-08-01T17:34:09.759Z,99981.13
2022-08-01T17:36:37.918Z,99978.25
2022-08-01T17:39:08.823Z,99982.00
2022-08-01T17:41:36.995Z,99983.50
2022-08-01T17:44:05.515Z,99979.09
2022-08-01T17:46:36.504Z,99986.44
2022-08-01T17:49:06.121Z,99983.19
2022-08-01T17:51:34.320Z,99985.03
2022-08-01T17:54:02.637Z,99982.53
2022-08-01T17:56:36.258Z,99984.03
2022-08-01T17:59:06.950Z,99989.81
2022-08-01T18:01:35.881Z,99989.31
2022-08-01T18:04:04.231Z,99986.75
2022-08-01T18:06:35.790Z,99986.56
2022-08-01T18:09:04.833Z,99985.69
2022-08-01T18:11:39.367Z,99990.44
2022-08-01T18:14:07.733Z,99991.13
2022-08-01T18:16:35.898Z,99994.00
2022-08-01T18:19:04.086Z,99997.91
2022-08-01T18:21:33.680Z,99994.34
2022-08-01T18:24:02.611Z,100001.09
2022-08-01T18:26:33.784Z,99999.72
2022-08-01T18:29:03.467Z,100004.41
2022-08-01T18:31:31.768Z,100006.44
2022-08-01T18:34:01.869Z,100006.78
2022-08-01T18:36:33.027Z,100017.44
2022-08-01T18:39:04.643Z,100012.84
2022-08-01T18:41:33.951Z,100020.00
2022-08-01T18:44:07.999Z,100017.13
2022-08-01T18:46:37.986Z,100024.63
2022-08-01T18:49:07.251Z,100022.59
2022-08-01T18:51:39.059Z,100029.50
2022-08-01T18:54:12.302Z,100037.28
2022-08-01T18:56:40.648Z,100039.53
2022-08-01T18:59:10.412Z,100043.25
2022-08-01T19:01:39.781Z,100041.00
2022-08-01T19:04:08.554Z,100038.50
2022-08-01T19:06:36.863Z,100043.06
2022-08-01T19:09:05.382Z,100045.44
2022-08-01T19:11:35.021Z,100042.91
2022-08-01T19:14:10.723Z,100046.56
2022-08-01T19:16:40.367Z,100047.38
2022-08-01T19:19:10.837Z,100056.84
2022-08-01T19:21:44.619Z,100062.75
2022-08-01T19:24:22.626Z,100058.94
2022-08-01T19:26:53.551Z,100058.44
2022-08-01T19:29:26.201Z,100061.25
2022-08-01T19:32:06.836Z,100061.00
2022-08-01T19:34:37.419Z,100062.44
2022-08-01T19:37:06.316Z,100066.44
2022-08-01T19:39:37.810Z,100070.47
2022-08-01T19:42:06.139Z,100067.25
2022-08-01T19:44:35.171Z,100065.38
2022-08-01T19:47:05.137Z,100070.47
2022-08-01T19:49:36.681Z,100067.78
2022-08-01T19:52:05.646Z,100072.19
2022-08-01T19:54:37.398Z,100068.94
2022-08-01T19:57:08.571Z,100063.81
2022-08-01T19:59:37.998Z,100065.31
2022-08-01T20:02:08.243Z,100066.16
2022-08-01T20:04:37.387Z,100061.91
2022-08-01T20:07:05.855Z,100070.03
2022-08-01T20:09:35.553Z,100069.50
2022-08-01T20:12:04.793Z,100068.09
2022-08-01T20:14:33.041Z,100064.38
2022-08-01T20:17:01.879Z,100063.84
2022-08-01T20:19:32.502Z,100063.84
2022-08-01T20:22:04.523Z,100074.03
2022-08-01T20:24:39.760Z,100068.50
2022-08-01T20:27:11.023Z,100068.09
2022-08-01T20:29:40.080Z,100065.47
2022-08-01T20:32:09.163Z,100069.34
2022-08-01T20:34:40.278Z,100064.78
2022-08-01T20:37:12.799Z,100077.66
2022-08-01T20:39:45.343Z,100071.56
2022-08-01T20:42:14.481Z,100066.22
2022-08-01T20:44:43.183Z,100080.19
2022-08-01T20:47:11.779Z,100078.50
2022-08-01T20:49:43.372Z,100074.81
2022-08-01T20:52:12.758Z,100080.44
2022-08-01T20:54:42.493Z,100075.75
2022-08-01T20:57:17.078Z,100081.88
2022-08-01T20:59:55.850Z,100089.13
2022-08-01T21:02:36.273Z,100085.75
2022-08-01T21:05:07.690Z,100086.19
2022-08-01T21:07:40.779Z,100081.53
2022-08-01T21:10:11.275Z,100082.41
2022-08-01T21:12:45.256Z,100077.88
2022-08-01T21:15:25.999Z,100078.84
2022-08-01T21:17:59.202Z,100087.84
2022-08-01T21:20:30.181Z,100089.81
2022-08-01T21:23:15.924Z,100092.50
2022-08-01T21:25:44.733Z,100090.41
2022-08-01T21:28:14.934Z,100084.16
2022-08-01T21:30:43.555Z,100082.31
2022-08-01T21:33:26.237Z,100088.00
2022-08-01T21:36:04.174Z,100090.81
2022-08-01T21:38:36.931Z,100085.28
2022-08-01T21:41:07.863Z,100094.09
2022-08-01T21:43:37.756Z,100089.41
2022-08-01T21:46:06.232Z,100088.00
2022-08-01T21:48:34.387Z,100089.84
2022-08-01T21:51:14.681Z,100089.69
2022-08-01T21:53:50.475Z,100088.81
2022-08-01T21:56:29.613Z,100092.81
2022-08-01T21:59:05.922Z,100098.34
2022-08-01T22:01:51.453Z,100099.34
2022-08-01T22:04:28.931Z,100101.59
2022-08-01T22:07:00.568Z,100096.94
2022-08-01T22:09:30.928Z,100097.56
2022-08-01T22:12:04.738Z,100095.88
2022-08-01T22:14:34.645Z,100096.94
2022-08-01T22:17:03.028Z,100092.22
2022-08-01T22:19:45.387Z,100098.91
2022-08-01T22:22:29.291Z,100093.09
2022-08-01T22:25:04.945Z,100105.59
2022-08-01T22:28:06.593Z,100098.19
2022-08-01T22:30:22.793Z,100097.63
2022-08-01T22:33:15.141Z,100090.25
2022-08-01T22:35:40.145Z,100104.72
2022-08-01T22:38:10.065Z,100110.81
2022-08-01T22:40:46.249Z,100108.56
2022-08-01T22:43:30.610Z,100106.97
2022-08-01T22:46:18.404Z,100110.41
2022-08-01T22:48:51.029Z,100113.22
2022-08-01T22:51:43.552Z,100113.50
2022-08-01T22:54:31.388Z,100107.47
2022-08-01T22:57:07.131Z,100115.25
2022-08-01T22:59:43.449Z,100099.59
2022-08-01T23:02:17.296Z,100106.50
2022-08-01T23:04:48.131Z,100113.13
2022-08-01T23:07:21.034Z,100101.63
2022-08-01T23:09:54.893Z,100099.00
2022-08-01T23:12:25.646Z,100107.53
2022-08-01T23:14:55.651Z,100104.84
2022-08-01T23:17:26.991Z,100109.19
2022-08-01T23:19:58.536Z,100111.25
2022-08-01T23:22:31.442Z,100107.69
2022-08-01T23:25:03.916Z,100111.63
2022-08-01T23:27:51.403Z,100096.16
2022-08-01T23:30:26.150Z,100101.88
2022-08-01T23:32:54.426Z,100101.97
2022-08-01T23:35:22.783Z,100104.41
2022-08-01T23:37:51.426Z,100101.53
2022-08-01T23:40:22.901Z,100107.94
2022-08-01T23:42:53.311Z,100107.50
2022-08-01T23:45:21.712Z,100106.88
2022-08-01T23:47:49.772Z,100110.19
2022-08-01T23:50:17.948Z,100098.69
2022-08-01T23:52:49.696Z,100101.41
2022-08-01T23:55:26.690Z,100103.41
2022-08-01T23:58:07.030Z,100099.53
